sensor_id;sensor_type;location;lat;lon;timestamp;P1;durP1;ratioP1;P2;durP2;ratioP2
16743;SDS011;71724;-33.900;151.182;2024-03-08T00:00:12;8.30;;;2.47;;
16743;SDS011;71724;-33.900;151.182;2024-03-08T00:02:41;5.13;;;1.95;;
16743;SDS011;71724;-33.900;151.182;2024-03-08T00:05:09;9.15;;;2.70;;
16743;SDS011;71724;-33.900;151.182;2024-03-08T00:07:41;12.15;;;2.92;;
16743;SDS011;71724;-33.900;151.182;2024-03-08T00:10:09;11.18;;;3.13;;
16743;SDS011;71724;-33.900;151.182;2024-03-08T00:12:41;14.98;;;3.65;;
16743;SDS011;71724;-33.900;151.182;2024-03-08T00:15:13;13.45;;;3.30;;
16743;SDS011;71724;-33.900;151.182;2024-03-08T00:17:43;14.07;;;3.08;;
16743;SDS011;71724;-33.900;151.182;2024-03-08T00:20:11;10.40;;;3.17;;
16743;SDS011;71724;-33.900;151.182;2024-03-08T00:22:39;9.27;;;2.83;;
16743;SDS011;71724;-33.900;151.182;2024-03-08T00:25:06;12.68;;;3.13;;
16743;SDS011;71724;-33.900;151.182;2024-03-08T00:27:41;12.70;;;2.88;;
16743;SDS011;71724;-33.900;151.182;2024-03-08T00:30:09;11.60;;;3.33;;
16743;SDS011;71724;-33.900;151.182;2024-03-08T00:32:38;8.55;;;2.60;;
16743;SDS011;71724;-33.900;151.182;2024-03-08T00:35:07;7.22;;;2.40;;
16743;SDS011;71724;-33.900;151.182;2024-03-08T00:37:35;13.32;;;2.78;;
16743;SDS011;71724;-33.900;151.182;2024-03-08T00:40:05;10.05;;;2.72;;
16743;SDS011;71724;-33.900;151.182;2024-03-08T00:42:34;9.23;;;2.67;;
16743;SDS011;71724;-33.900;151.182;2024-03-08T00:45:05;8.80;;;2.42;;
16743;SDS011;71724;-33.900;151.182;2024-03-08T00:47:33;8.52;;;2.58;;
16743;SDS011;71724;-33.900;151.182;2024-03-08T00:50:01;12.75;;;2.85;;
16743;SDS011;71724;-33.900;151.182;2024-03-08T00:52:33;12.45;;;2.92;;
16743;SDS011;71724;-33.900;151.182;2024-03-08T00:55:01;12.00;;;2.72;;
16743;SDS011;71724;-33.900;151.182;2024-03-08T00:57:28;11.55;;;2.78;;
16743;SDS011;71724;-33.900;151.182;2024-03-08T00:59:56;11.55;;;3.28;;
16743;SDS011;71724;-33.900;151.182;2024-03-08T01:02:23;8.90;;;2.67;;
16743;SDS011;71724;-33.900;151.182;2024-03-08T01:04:50;11.10;;;3.15;;
16743;SDS011;71724;-33.900;151.182;2024-03-08T01:07:20;11.65;;;3.35;;
16743;SDS011;71724;-33.900;151.182;2024-03-08T01:09:47;12.52;;;2.70;;
16743;SDS011;71724;-33.900;151.182;2024-03-08T01:12:14;7.30;;;2.40;;
16743;SDS011;71724;-33.900;151.182;2024-03-08T01:14:42;13.63;;;3.42;;
16743;SDS011;71724;-33.900;151.182;2024-03-08T01:17:09;14.80;;;3.00;;
16743;SDS011;71724;-33.900;151.182;2024-03-08T01:19:39;14.30;;;3.28;;
16743;SDS011;71724;-33.900;151.182;2024-03-08T01:22:07;16.50;;;3.25;;
16743;SDS011;71724;-33.900;151.182;2024-03-08T01:24:35;11.18;;;3.10;;
16743;SDS011;71724;-33.900;151.182;2024-03-08T01:27:03;13.02;;;3.28;;
16743;SDS011;71724;-33.900;151.182;2024-03-08T01:29:30;12.75;;;3.20;;
16743;SDS011;71724;-33.900;151.182;2024-03-08T01:31:58;14.35;;;3.45;;
16743;SDS011;71724;-33.900;151.182;2024-03-08T01:34:27;11.65;;;2.58;;
16743;SDS011;71724;-33.900;151.182;2024-03-08T01:36:54;12.80;;;3.03;;
16743;SDS011;71724;-33.900;151.182;2024-03-08T01:39:23;10.10;;;2.72;;
16743;SDS011;71724;-33.900;151.182;2024-03-08T01:41:50;17.15;;;2.83;;
16743;SDS011;71724;-33.900;151.182;2024-03-08T01:44:19;8.43;;;2.67;;
16743;SDS011;71724;-33.900;151.182;2024-03-08T01:46:47;11.52;;;2.55;;
16743;SDS011;71724;-33.900;151.182;2024-03-08T01:49:17;8.00;;;2.50;;
16743;SDS011;71724;-33.900;151.182;2024-03-08T01:51:47;8.30;;;1.92;;
16743;SDS011;71724;-33.900;151.182;2024-03-08T01:54:16;8.05;;;2.10;;
16743;SDS011;71724;-33.900;151.182;2024-03-08T01:56:46;10.77;;;2.78;;
16743;SDS011;71724;-33.900;151.182;2024-03-08T01:59:14;11.57;;;2.15;;
16743;SDS011;71724;-33.900;151.182;2024-03-08T02:01:42;7.68;;;2.00;;
16743;SDS011;71724;-33.900;151.182;2024-03-08T02:04:10;7.93;;;2.25;;
16743;SDS011;71724;-33.900;151.182;2024-03-08T02:06:37;6.60;;;1.77;;
16743;SDS011;71724;-33.900;151.182;2024-03-08T02:09:05;7.32;;;2.45;;
16743;SDS011;71724;-33.900;151.182;2024-03-08T02:11:33;6.13;;;2.00;;
16743;SDS011;71724;-33.900;151.182;2024-03-08T02:14:01;6.97;;;1.80;;
16743;SDS011;71724;-33.900;151.182;2024-03-08T02:16:31;10.40;;;1.73;;
16743;SDS011;71724;-33.900;151.182;2024-03-08T02:18:59;8.88;;;1.88;;
16743;SDS011;71724;-33.900;151.182;2024-03-08T02:21:26;6.80;;;1.70;;
16743;SDS011;71724;-33.900;151.182;2024-03-08T02:23:55;7.95;;;1.90;;
16743;SDS011;71724;-33.900;151.182;2024-03-08T02:26:22;8.52;;;1.73;;
16743;SDS011;71724;-33.900;151.182;2024-03-08T02:28:50;5.38;;;1.50;;
16743;SDS011;71724;-33.900;151.182;2024-03-08T02:31:17;7.97;;;1.88;;
16743;SDS011;71724;-33.900;151.182;2024-03-08T02:33:44;5.28;;;1.77;;
16743;SDS011;71724;-33.900;151.182;2024-03-08T02:36:13;5.90;;;1.67;;
16743;SDS011;71724;-33.900;151.182;2024-03-08T02:38:41;9.57;;;2.03;;
16743;SDS011;71724;-33.900;151.182;2024-03-08T02:41:09;6.93;;;1.70;;
16743;SDS011;71724;-33.900;151.182;2024-03-08T02:43:36;4.90;;;1.33;;
16743;SDS011;71724;-33.900;151.182;2024-03-08T02:46:04;3.88;;;1.40;;
16743;SDS011;71724;-33.900;151.182;2024-03-08T02:48:31;3.33;;;1.13;;
16743;SDS011;71724;-33.900;151.182;2024-03-08T02:50:58;4.72;;;1.25;;
16743;SDS011;71724;-33.900;151.182;2024-03-08T02:53:27;4.68;;;1.40;;
16743;SDS011;71724;-33.900;151.182;2024-03-08T02:55:54;4.65;;;1.45;;
16743;SDS011;71724;-33.900;151.182;2024-03-08T02:58:22;3.90;;;0.90;;
16743;SDS011;71724;-33.900;151.182;2024-03-08T03:00:49;2.72;;;1.00;;
16743;SDS011;71724;-33.900;151.182;2024-03-08T03:03:17;2.78;;;1.00;;
16743;SDS011;71724;-33.900;151.182;2024-03-08T03:05:44;4.82;;;1.00;;
16743;SDS011;71724;-33.900;151.182;2024-03-08T03:08:12;3.13;;;1.00;;
16743;SDS011;71724;-33.900;151.182;2024-03-08T03:10:42;2.60;;;1.10;;
16743;SDS011;71724;-33.900;151.182;2024-03-08T03:13:09;6.68;;;1.10;;
16743;SDS011;71724;-33.900;151.182;2024-03-08T03:15:37;4.30;;;1.00;;
16743;SDS011;71724;-33.900;151.182;2024-03-08T03:18:07;4.47;;;1.30;;
16743;SDS011;71724;-33.900;151.182;2024-03-08T03:20:35;4.78;;;1.35;;
16743;SDS011;71724;-33.900;151.182;2024-03-08T03:23:09;5.93;;;1.23;;
16743;SDS011;71724;-33.900;151.182;2024-03-08T03:25:39;4.50;;;1.33;;
16743;SDS011;71724;-33.900;151.182;2024-03-08T03:28:07;8.05;;;1.40;;
16743;SDS011;71724;-33.900;151.182;2024-03-08T03:30:36;4.13;;;1.15;;
16743;SDS011;71724;-33.900;151.182;2024-03-08T03:33:04;5.50;;;1.13;;
16743;SDS011;71724;-33.900;151.182;2024-03-08T03:35:35;4.38;;;1.05;;
16743;SDS011;71724;-33.900;151.182;2024-03-08T03:38:03;5.43;;;1.30;;
16743;SDS011;71724;-33.900;151.182;2024-03-08T03:40:36;3.35;;;0.85;;
16743;SDS011;71724;-33.900;151.182;2024-03-08T03:43:04;2.75;;;1.00;;
16743;SDS011;71724;-33.900;151.182;2024-03-08T03:45:32;4.97;;;1.10;;
16743;SDS011;71724;-33.900;151.182;2024-03-08T03:48:03;4.32;;;1.00;;
16743;SDS011;71724;-33.900;151.182;2024-03-08T03:50:37;3.35;;;1.08;;
16743;SDS011;71724;-33.900;151.182;2024-03-08T03:53:05;2.83;;;0.80;;
16743;SDS011;71724;-33.900;151.182;2024-03-08T03:55:35;4.28;;;1.00;;
16743;SDS011;71724;-33.900;151.182;2024-03-08T03:58:04;2.95;;;0.98;;
16743;SDS011;71724;-33.900;151.182;2024-03-08T04:00:31;5.30;;;1.17;;
16743;SDS011;71724;-33.900;151.182;2024-03-08T04:02:59;4.72;;;1.10;;
16743;SDS011;71724;-33.900;151.182;2024-03-08T04:05:26;5.00;;;1.00;;
16743;SDS011;71724;-33.900;151.182;2024-03-08T04:07:54;3.63;;;1.25;;
16743;SDS011;71724;-33.900;151.182;2024-03-08T04:10:21;3.60;;;1.10;;
16743;SDS011;71724;-33.900;151.182;2024-03-08T04:12:48;5.38;;;1.23;;
16743;SDS011;71724;-33.900;151.182;2024-03-08T04:15:16;4.57;;;1.02;;
16743;SDS011;71724;-33.900;151.182;2024-03-08T04:23:24;4.43;;;0.90;;
16743;SDS011;71724;-33.900;151.182;2024-03-08T04:25:59;1.90;;;0.80;;
16743;SDS011;71724;-33.900;151.182;2024-03-08T04:30:54;6.78;;;1.13;;
16743;SDS011;71724;-33.900;151.182;2024-03-08T04:33:21;3.25;;;0.98;;
16743;SDS011;71724;-33.900;151.182;2024-03-08T04:35:49;4.32;;;0.90;;
16743;SDS011;71724;-33.900;151.182;2024-03-08T04:38:16;4.82;;;1.00;;
16743;SDS011;71724;-33.900;151.182;2024-03-08T04:40:45;3.38;;;1.08;;
16743;SDS011;71724;-33.900;151.182;2024-03-08T04:43:12;5.22;;;1.10;;
16743;SDS011;71724;-33.900;151.182;2024-03-08T04:45:40;5.32;;;0.95;;
16743;SDS011;71724;-33.900;151.182;2024-03-08T04:48:09;7.35;;;1.23;;
16743;SDS011;71724;-33.900;151.182;2024-03-08T04:50:37;2.97;;;0.90;;
16743;SDS011;71724;-33.900;151.182;2024-03-08T04:53:05;4.32;;;1.08;;
16743;SDS011;71724;-33.900;151.182;2024-03-08T04:55:34;3.35;;;0.93;;
16743;SDS011;71724;-33.900;151.182;2024-03-08T04:58:03;5.32;;;1.20;;
16743;SDS011;71724;-33.900;151.182;2024-03-08T05:00:33;3.45;;;0.90;;
16743;SDS011;71724;-33.900;151.182;2024-03-08T05:03:00;3.72;;;0.95;;
16743;SDS011;71724;-33.900;151.182;2024-03-08T05:05:28;4.45;;;1.00;;
16743;SDS011;71724;-33.900;151.182;2024-03-08T05:07:56;2.97;;;0.80;;
16743;SDS011;71724;-33.900;151.182;2024-03-08T05:10:23;5.03;;;0.90;;
16743;SDS011;71724;-33.900;151.182;2024-03-08T05:12:50;3.92;;;1.23;;
16743;SDS011;71724;-33.900;151.182;2024-03-08T05:15:18;5.38;;;1.05;;
16743;SDS011;71724;-33.900;151.182;2024-03-08T05:17:46;2.00;;;0.90;;
16743;SDS011;71724;-33.900;151.182;2024-03-08T05:20:13;1.73;;;0.75;;
16743;SDS011;71724;-33.900;151.182;2024-03-08T05:22:42;5.85;;;1.00;;
16743;SDS011;71724;-33.900;151.182;2024-03-08T05:25:10;3.65;;;1.00;;
16743;SDS011;71724;-33.900;151.182;2024-03-08T05:27:37;4.10;;;0.93;;
16743;SDS011;71724;-33.900;151.182;2024-03-08T05:30:05;2.92;;;0.98;;
16743;SDS011;71724;-33.900;151.182;2024-03-08T05:32:33;5.65;;;1.27;;
16743;SDS011;71724;-33.900;151.182;2024-03-08T05:35:01;3.28;;;1.05;;
16743;SDS011;71724;-33.900;151.182;2024-03-08T05:37:32;3.53;;;1.10;;
16743;SDS011;71724;-33.900;151.182;2024-03-08T05:40:00;3.50;;;1.00;;
16743;SDS011;71724;-33.900;151.182;2024-03-08T05:42:27;4.43;;;1.08;;
16743;SDS011;71724;-33.900;151.182;2024-03-08T05:44:55;3.00;;;0.90;;
16743;SDS011;71724;-33.900;151.182;2024-03-08T05:47:22;3.03;;;1.10;;
16743;SDS011;71724;-33.900;151.182;2024-03-08T05:49:50;5.45;;;1.33;;
16743;SDS011;71724;-33.900;151.182;2024-03-08T05:52:19;3.80;;;0.98;;
16743;SDS011;71724;-33.900;151.182;2024-03-08T05:54:46;4.05;;;1.13;;
16743;SDS011;71724;-33.900;151.182;2024-03-08T05:57:13;6.32;;;1.00;;
16743;SDS011;71724;-33.900;151.182;2024-03-08T05:59:41;8.02;;;1.17;;
16743;SDS011;71724;-33.900;151.182;2024-03-08T06:02:09;2.38;;;0.82;;
16743;SDS011;71724;-33.900;151.182;2024-03-08T06:04:37;4.60;;;1.10;;
16743;SDS011;71724;-33.900;151.182;2024-03-08T06:07:04;2.10;;;0.98;;
16743;SDS011;71724;-33.900;151.182;2024-03-08T06:09:31;3.97;;;0.80;;
16743;SDS011;71724;-33.900;151.182;2024-03-08T06:11:59;3.17;;;0.82;;
16743;SDS011;71724;-33.900;151.182;2024-03-08T06:14:27;2.45;;;0.90;;
16743;SDS011;71724;-33.900;151.182;2024-03-08T06:16:54;2.55;;;0.95;;
16743;SDS011;71724;-33.900;151.182;2024-03-08T06:19:22;5.05;;;0.95;;
16743;SDS011;71724;-33.900;151.182;2024-03-08T06:21:49;3.53;;;1.00;;
16743;SDS011;71724;-33.900;151.182;2024-03-08T06:24:17;3.10;;;0.98;;
16743;SDS011;71724;-33.900;151.182;2024-03-08T06:26:45;5.20;;;1.45;;
16743;SDS011;71724;-33.900;151.182;2024-03-08T06:29:12;6.63;;;1.80;;
16743;SDS011;71724;-33.900;151.182;2024-03-08T06:31:41;5.55;;;2.58;;
16743;SDS011;71724;-33.900;151.182;2024-03-08T06:34:08;5.53;;;1.33;;
16743;SDS011;71724;-33.900;151.182;2024-03-08T06:36:37;5.35;;;1.17;;
16743;SDS011;71724;-33.900;151.182;2024-03-08T06:39:04;3.60;;;1.00;;
16743;SDS011;71724;-33.900;151.182;2024-03-08T06:41:35;3.30;;;1.23;;
16743;SDS011;71724;-33.900;151.182;2024-03-08T06:44:03;2.90;;;0.90;;
16743;SDS011;71724;-33.900;151.182;2024-03-08T06:46:31;3.80;;;1.08;;
16743;SDS011;71724;-33.900;151.182;2024-03-08T06:48:59;4.95;;;1.20;;
16743;SDS011;71724;-33.900;151.182;2024-03-08T06:51:27;3.35;;;1.00;;
16743;SDS011;71724;-33.900;151.182;2024-03-08T06:53:54;2.85;;;1.20;;
16743;SDS011;71724;-33.900;151.182;2024-03-08T06:56:21;3.75;;;1.00;;
16743;SDS011;71724;-33.900;151.182;2024-03-08T06:58:49;6.32;;;1.23;;
16743;SDS011;71724;-33.900;151.182;2024-03-08T07:01:16;2.78;;;1.08;;
16743;SDS011;71724;-33.900;151.182;2024-03-08T07:03:43;3.03;;;1.00;;
16743;SDS011;71724;-33.900;151.182;2024-03-08T07:06:11;3.95;;;1.25;;
16743;SDS011;71724;-33.900;151.182;2024-03-08T07:08:39;3.90;;;0.80;;
16743;SDS011;71724;-33.900;151.182;2024-03-08T07:11:08;2.92;;;0.90;;
16743;SDS011;71724;-33.900;151.182;2024-03-08T07:13:36;4.93;;;1.05;;
16743;SDS011;71724;-33.900;151.182;2024-03-08T07:16:04;3.30;;;0.77;;
16743;SDS011;71724;-33.900;151.182;2024-03-08T07:18:33;3.08;;;0.93;;
16743;SDS011;71724;-33.900;151.182;2024-03-08T07:21:05;4.25;;;1.00;;
16743;SDS011;71724;-33.900;151.182;2024-03-08T07:23:32;3.78;;;1.15;;
16743;SDS011;71724;-33.900;151.182;2024-03-08T07:26:19;2.40;;;0.93;;
16743;SDS011;71724;-33.900;151.182;2024-03-08T07:28:47;1.95;;;0.85;;
16743;SDS011;71724;-33.900;151.182;2024-03-08T07:31:14;4.20;;;1.00;;
16743;SDS011;71724;-33.900;151.182;2024-03-08T07:34:07;2.85;;;0.77;;
16743;SDS011;71724;-33.900;151.182;2024-03-08T07:36:35;3.65;;;0.98;;
16743;SDS011;71724;-33.900;151.182;2024-03-08T07:39:02;2.83;;;1.10;;
16743;SDS011;71724;-33.900;151.182;2024-03-08T07:41:37;5.57;;;1.10;;
16743;SDS011;71724;-33.900;151.182;2024-03-08T07:44:07;4.80;;;1.63;;
16743;SDS011;71724;-33.900;151.182;2024-03-08T07:46:35;3.85;;;0.95;;
16743;SDS011;71724;-33.900;151.182;2024-03-08T07:49:03;5.78;;;1.40;;
16743;SDS011;71724;-33.900;151.182;2024-03-08T07:51:30;5.82;;;1.70;;
16743;SDS011;71724;-33.900;151.182;2024-03-08T07:54:00;4.15;;;1.33;;
16743;SDS011;71724;-33.900;151.182;2024-03-08T07:56:30;2.70;;;1.20;;
16743;SDS011;71724;-33.900;151.182;2024-03-08T07:58:57;3.25;;;1.20;;
16743;SDS011;71724;-33.900;151.182;2024-03-08T08:01:25;4.80;;;1.40;;
16743;SDS011;71724;-33.900;151.182;2024-03-08T08:03:52;3.75;;;1.50;;
16743;SDS011;71724;-33.900;151.182;2024-03-08T08:06:19;4.72;;;1.50;;
16743;SDS011;71724;-33.900;151.182;2024-03-08T08:08:47;3.47;;;1.55;;
16743;SDS011;71724;-33.900;151.182;2024-03-08T08:11:15;2.63;;;1.13;;
16743;SDS011;71724;-33.900;151.182;2024-03-08T08:13:42;3.40;;;1.38;;
16743;SDS011;71724;-33.900;151.182;2024-03-08T08:16:09;4.05;;;1.02;;
16743;SDS011;71724;-33.900;151.182;2024-03-08T08:18:38;2.65;;;1.10;;
16743;SDS011;71724;-33.900;151.182;2024-03-08T08:21:06;4.68;;;1.20;;
16743;SDS011;71724;-33.900;151.182;2024-03-08T08:23:33;2.45;;;1.15;;
16743;SDS011;71724;-33.900;151.182;2024-03-08T08:26:01;4.53;;;1.38;;
16743;SDS011;71724;-33.900;151.182;2024-03-08T08:28:29;4.70;;;1.38;;
16743;SDS011;71724;-33.900;151.182;2024-03-08T08:30:57;2.80;;;1.27;;
16743;SDS011;71724;-33.900;151.182;2024-03-08T08:33:25;3.72;;;1.08;;
16743;SDS011;71724;-33.900;151.182;2024-03-08T08:35:52;2.83;;;1.02;;
16743;SDS011;71724;-33.900;151.182;2024-03-08T08:38:21;4.25;;;1.30;;
16743;SDS011;71724;-33.900;151.182;2024-03-08T08:40:49;2.88;;;1.40;;
16743;SDS011;71724;-33.900;151.182;2024-03-08T08:43:16;3.45;;;1.30;;
16743;SDS011;71724;-33.900;151.182;2024-03-08T08:45:46;3.75;;;1.35;;
16743;SDS011;71724;-33.900;151.182;2024-03-08T08:48:16;3.92;;;1.23;;
16743;SDS011;71724;-33.900;151.182;2024-03-08T08:50:44;3.92;;;1.48;;
16743;SDS011;71724;-33.900;151.182;2024-03-08T08:53:12;5.13;;;1.88;;
16743;SDS011;71724;-33.900;151.182;2024-03-08T08:55:40;5.03;;;1.20;;
16743;SDS011;71724;-33.900;151.182;2024-03-08T08:58:08;4.20;;;1.40;;
16743;SDS011;71724;-33.900;151.182;2024-03-08T09:00:36;5.75;;;1.55;;
16743;SDS011;71724;-33.900;151.182;2024-03-08T09:03:04;2.65;;;1.27;;
16743;SDS011;71724;-33.900;151.182;2024-03-08T09:05:36;3.70;;;1.40;;
16743;SDS011;71724;-33.900;151.182;2024-03-08T09:08:04;4.15;;;1.40;;
16743;SDS011;71724;-33.900;151.182;2024-03-08T09:10:31;5.65;;;1.42;;
16743;SDS011;71724;-33.900;151.182;2024-03-08T09:12:59;4.80;;;1.50;;
16743;SDS011;71724;-33.900;151.182;2024-03-08T09:15:29;3.55;;;1.38;;
16743;SDS011;71724;-33.900;151.182;2024-03-08T09:17:57;2.67;;;1.00;;
16743;SDS011;71724;-33.900;151.182;2024-03-08T09:20:24;3.28;;;1.35;;
16743;SDS011;71724;-33.900;151.182;2024-03-08T09:22:52;3.38;;;1.70;;
16743;SDS011;71724;-33.900;151.182;2024-03-08T09:25:20;6.22;;;1.85;;
16743;SDS011;71724;-33.900;151.182;2024-03-08T09:27:47;5.80;;;1.70;;
16743;SDS011;71724;-33.900;151.182;2024-03-08T09:30:15;4.05;;;1.30;;
16743;SDS011;71724;-33.900;151.182;2024-03-08T09:32:43;5.63;;;1.50;;
16743;SDS011;71724;-33.900;151.182;2024-03-08T09:35:12;4.35;;;1.40;;
16743;SDS011;71724;-33.900;151.182;2024-03-08T09:37:39;4.70;;;1.48;;
16743;SDS011;71724;-33.900;151.182;2024-03-08T09:40:06;3.17;;;1.25;;
16743;SDS011;71724;-33.900;151.182;2024-03-08T09:42:41;3.67;;;1.25;;
16743;SDS011;71724;-33.900;151.182;2024-03-08T09:45:09;3.78;;;1.30;;
16743;SDS011;71724;-33.900;151.182;2024-03-08T09:47:41;4.65;;;1.50;;
16743;SDS011;71724;-33.900;151.182;2024-03-08T09:50:10;4.57;;;1.48;;
16743;SDS011;71724;-33.900;151.182;2024-03-08T09:52:44;4.30;;;1.30;;
16743;SDS011;71724;-33.900;151.182;2024-03-08T09:55:14;4.32;;;1.60;;
16743;SDS011;71724;-33.900;151.182;2024-03-08T09:57:47;3.85;;;1.35;;
16743;SDS011;71724;-33.900;151.182;2024-03-08T10:00:38;2.33;;;1.10;;
16743;SDS011;71724;-33.900;151.182;2024-03-08T10:03:06;9.05;;;1.30;;
16743;SDS011;71724;-33.900;151.182;2024-03-08T10:05:34;6.13;;;1.23;;
16743;SDS011;71724;-33.900;151.182;2024-03-08T10:08:02;6.38;;;1.40;;
16743;SDS011;71724;-33.900;151.182;2024-03-08T10:10:30;7.55;;;1.60;;
16743;SDS011;71724;-33.900;151.182;2024-03-08T10:12:59;4.13;;;1.25;;
16743;SDS011;71724;-33.900;151.182;2024-03-08T10:15:27;6.15;;;1.80;;
16743;SDS011;71724;-33.900;151.182;2024-03-08T10:18:00;3.95;;;1.20;;
16743;SDS011;71724;-33.900;151.182;2024-03-08T10:20:31;7.03;;;1.30;;
16743;SDS011;71724;-33.900;151.182;2024-03-08T10:23:04;4.05;;;1.23;;
16743;SDS011;71724;-33.900;151.182;2024-03-08T10:25:32;3.17;;;1.05;;
16743;SDS011;71724;-33.900;151.182;2024-03-08T10:28:02;4.32;;;1.25;;
16743;SDS011;71724;-33.900;151.182;2024-03-08T10:30:33;6.10;;;1.30;;
16743;SDS011;71724;-33.900;151.182;2024-03-08T10:33:00;4.47;;;1.10;;
16743;SDS011;71724;-33.900;151.182;2024-03-08T10:35:30;7.78;;;1.90;;
16743;SDS011;71724;-33.900;151.182;2024-03-08T10:37:58;4.30;;;1.30;;
16743;SDS011;71724;-33.900;151.182;2024-03-08T10:40:29;2.67;;;1.10;;
16743;SDS011;71724;-33.900;151.182;2024-03-08T10:42:59;6.28;;;2.03;;
16743;SDS011;71724;-33.900;151.182;2024-03-08T10:48:04;3.85;;;1.25;;
16743;SDS011;71724;-33.900;151.182;2024-03-08T10:50:36;6.15;;;1.60;;
16743;SDS011;71724;-33.900;151.182;2024-03-08T10:53:05;4.47;;;1.60;;
16743;SDS011;71724;-33.900;151.182;2024-03-08T10:55:34;6.05;;;1.30;;
16743;SDS011;71724;-33.900;151.182;2024-03-08T10:58:06;6.32;;;1.40;;
16743;SDS011;71724;-33.900;151.182;2024-03-08T11:00:34;4.95;;;1.40;;
16743;SDS011;71724;-33.900;151.182;2024-03-08T11:03:02;5.65;;;1.33;;
16743;SDS011;71724;-33.900;151.182;2024-03-08T11:05:37;8.10;;;1.65;;
16743;SDS011;71724;-33.900;151.182;2024-03-08T11:10:53;4.20;;;1.45;;
16743;SDS011;71724;-33.900;151.182;2024-03-08T11:13:40;2.40;;;0.95;;
16743;SDS011;71724;-33.900;151.182;2024-03-08T11:16:11;7.00;;;1.20;;
16743;SDS011;71724;-33.900;151.182;2024-03-08T11:19:00;4.38;;;1.00;;
16743;SDS011;71724;-33.900;151.182;2024-03-08T11:21:36;3.03;;;1.00;;
16743;SDS011;71724;-33.900;151.182;2024-03-08T11:24:10;6.22;;;1.42;;
16743;SDS011;71724;-33.900;151.182;2024-03-08T11:26:40;2.95;;;1.00;;
16743;SDS011;71724;-33.900;151.182;2024-03-08T11:32:16;2.55;;;0.80;;
16743;SDS011;71724;-33.900;151.182;2024-03-08T11:34:48;7.10;;;1.23;;
16743;SDS011;71724;-33.900;151.182;2024-03-08T11:37:17;3.83;;;1.27;;
16743;SDS011;71724;-33.900;151.182;2024-03-08T11:39:47;5.18;;;1.10;;
16743;SDS011;71724;-33.900;151.182;2024-03-08T11:42:15;3.63;;;1.10;;
16743;SDS011;71724;-33.900;151.182;2024-03-08T11:44:44;2.88;;;1.00;;
16743;SDS011;71724;-33.900;151.182;2024-03-08T11:47:13;4.22;;;1.30;;
16743;SDS011;71724;-33.900;151.182;2024-03-08T11:49:42;6.63;;;1.23;;
16743;SDS011;71724;-33.900;151.182;2024-03-08T11:52:14;6.97;;;1.30;;
16743;SDS011;71724;-33.900;151.182;2024-03-08T11:54:52;2.13;;;0.90;;
16743;SDS011;71724;-33.900;151.182;2024-03-08T11:57:22;5.28;;;1.13;;
16743;SDS011;71724;-33.900;151.182;2024-03-08T11:59:51;2.72;;;1.75;;
16743;SDS011;71724;-33.900;151.182;2024-03-08T12:02:19;6.30;;;1.15;;
16743;SDS011;71724;-33.900;151.182;2024-03-08T12:04:46;2.22;;;0.80;;
16743;SDS011;71724;-33.900;151.182;2024-03-08T12:07:21;2.85;;;1.10;;
16743;SDS011;71724;-33.900;151.182;2024-03-08T12:12:48;4.50;;;0.80;;
16743;SDS011;71724;-33.900;151.182;2024-03-08T12:15:17;4.72;;;1.10;;
16743;SDS011;71724;-33.900;151.182;2024-03-08T12:17:52;4.20;;;1.02;;
16743;SDS011;71724;-33.900;151.182;2024-03-08T12:20:25;4.13;;;1.08;;
16743;SDS011;71724;-33.900;151.182;2024-03-08T12:22:57;4.68;;;1.10;;
16743;SDS011;71724;-33.900;151.182;2024-03-08T12:25:32;4.82;;;1.20;;
16743;SDS011;71724;-33.900;151.182;2024-03-08T12:28:10;2.63;;;0.90;;
16743;SDS011;71724;-33.900;151.182;2024-03-08T12:30:58;5.25;;;1.20;;
16743;SDS011;71724;-33.900;151.182;2024-03-08T12:33:26;4.50;;;1.40;;
16743;SDS011;71724;-33.900;151.182;2024-03-08T12:35:54;2.47;;;0.82;;
16743;SDS011;71724;-33.900;151.182;2024-03-08T12:38:24;4.35;;;1.10;;
16743;SDS011;71724;-33.900;151.182;2024-03-08T12:41:00;3.22;;;1.10;;
16743;SDS011;71724;-33.900;151.182;2024-03-08T12:43:27;3.60;;;1.15;;
16743;SDS011;71724;-33.900;151.182;2024-03-08T12:45:59;1.73;;;0.98;;
16743;SDS011;71724;-33.900;151.182;2024-03-08T12:48:27;6.97;;;1.25;;
16743;SDS011;71724;-33.900;151.182;2024-03-08T12:50:54;4.38;;;1.30;;
16743;SDS011;71724;-33.900;151.182;2024-03-08T12:53:21;6.18;;;0.98;;
16743;SDS011;71724;-33.900;151.182;2024-03-08T12:55:50;3.42;;;1.00;;
16743;SDS011;71724;-33.900;151.182;2024-03-08T12:58:18;3.33;;;1.02;;
16743;SDS011;71724;-33.900;151.182;2024-03-08T13:00:45;3.78;;;0.90;;
16743;SDS011;71724;-33.900;151.182;2024-03-08T13:03:14;6.30;;;0.93;;
16743;SDS011;71724;-33.900;151.182;2024-03-08T13:05:41;2.63;;;0.88;;
16743;SDS011;71724;-33.900;151.182;2024-03-08T13:08:08;1.85;;;0.70;;
16743;SDS011;71724;-33.900;151.182;2024-03-08T13:10:39;3.53;;;0.88;;
16743;SDS011;71724;-33.900;151.182;2024-03-08T13:13:11;2.60;;;0.90;;
16743;SDS011;71724;-33.900;151.182;2024-03-08T13:15:43;4.32;;;0.93;;
16743;SDS011;71724;-33.900;151.182;2024-03-08T13:18:11;4.38;;;1.23;;
16743;SDS011;71724;-33.900;151.182;2024-03-08T13:20:38;3.03;;;0.80;;
16743;SDS011;71724;-33.900;151.182;2024-03-08T13:23:07;3.88;;;0.90;;
16743;SDS011;71724;-33.900;151.182;2024-03-08T13:25:34;2.17;;;0.80;;
16743;SDS011;71724;-33.900;151.182;2024-03-08T13:28:04;2.22;;;0.90;;
16743;SDS011;71724;-33.900;151.182;2024-03-08T13:30:32;3.33;;;1.17;;
16743;SDS011;71724;-33.900;151.182;2024-03-08T13:33:01;3.40;;;0.90;;
16743;SDS011;71724;-33.900;151.182;2024-03-08T13:35:30;3.50;;;1.20;;
16743;SDS011;71724;-33.900;151.182;2024-03-08T13:37:58;4.30;;;1.15;;
16743;SDS011;71724;-33.900;151.182;2024-03-08T13:40:29;5.28;;;1.23;;
16743;SDS011;71724;-33.900;151.182;2024-03-08T13:42:57;3.72;;;0.90;;
16743;SDS011;71724;-33.900;151.182;2024-03-08T13:45:26;6.28;;;1.02;;
16743;SDS011;71724;-33.900;151.182;2024-03-08T13:47:53;1.55;;;0.80;;
16743;SDS011;71724;-33.900;151.182;2024-03-08T13:50:21;2.40;;;1.10;;
16743;SDS011;71724;-33.900;151.182;2024-03-08T13:52:49;3.22;;;1.00;;
16743;SDS011;71724;-33.900;151.182;2024-03-08T13:55:20;3.80;;;1.00;;
16743;SDS011;71724;-33.900;151.182;2024-03-08T13:57:48;4.80;;;1.10;;
16743;SDS011;71724;-33.900;151.182;2024-03-08T14:00:17;2.97;;;1.08;;
16743;SDS011;71724;-33.900;151.182;2024-03-08T14:02:48;6.28;;;1.00;;
16743;SDS011;71724;-33.900;151.182;2024-03-08T14:05:16;5.05;;;1.00;;
16743;SDS011;71724;-33.900;151.182;2024-03-08T14:07:45;4.10;;;1.00;;
16743;SDS011;71724;-33.900;151.182;2024-03-08T14:10:15;1.38;;;0.98;;
16743;SDS011;71724;-33.900;151.182;2024-03-08T14:12:45;2.15;;;0.90;;
16743;SDS011;71724;-33.900;151.182;2024-03-08T14:15:14;4.55;;;1.00;;
16743;SDS011;71724;-33.900;151.182;2024-03-08T14:17:42;1.95;;;0.80;;
16743;SDS011;71724;-33.900;151.182;2024-03-08T14:20:12;3.88;;;0.98;;
16743;SDS011;71724;-33.900;151.182;2024-03-08T14:22:39;5.78;;;1.20;;
16743;SDS011;71724;-33.900;151.182;2024-03-08T14:25:07;1.52;;;0.85;;
16743;SDS011;71724;-33.900;151.182;2024-03-08T14:27:51;5.07;;;1.23;;
16743;SDS011;71724;-33.900;151.182;2024-03-08T14:30:22;3.67;;;1.17;;
16743;SDS011;71724;-33.900;151.182;2024-03-08T14:33:06;2.08;;;0.90;;
16743;SDS011;71724;-33.900;151.182;2024-03-08T14:35:38;2.28;;;0.98;;
16743;SDS011;71724;-33.900;151.182;2024-03-08T14:38:08;4.40;;;0.98;;